sensor_id;sensor_type;location;lat;lon;timestamp;temperature;humidity
4431;DHT22;2228;48.140;11.488;2023-04-06T06:40:21;3.70;1.00
4431;DHT22;2228;48.140;11.488;2023-04-06T06:42:49;3.90;1.00
4431;DHT22;2228;48.140;11.488;2023-04-06T06:53:23;5.30;1.00
4431;DHT22;2228;48.140;11.488;2023-04-06T06:56:08;5.70;1.00
4431;DHT22;2228;48.140;11.488;2023-04-06T06:58:38;5.90;1.00
4431;DHT22;2228;48.140;11.488;2023-04-06T07:01:05;6.40;1.00
4431;DHT22;2228;48.140;11.488;2023-04-06T07:03:31;7.00;1.00
4431;DHT22;2228;48.140;11.488;2023-04-06T07:05:59;7.20;1.00
4431;DHT22;2228;48.140;11.488;2023-04-06T07:08:27;7.50;1.00
4431;DHT22;2228;48.140;11.488;2023-04-06T07:10:54;7.70;1.00
4431;DHT22;2228;48.140;11.488;2023-04-06T07:13:23;7.50;1.00
4431;DHT22;2228;48.140;11.488;2023-04-06T07:15:53;7.00;1.00
4431;DHT22;2228;48.140;11.488;2023-04-06T07:18:20;6.70;1.00
4431;DHT22;2228;48.140;11.488;2023-04-06T07:20:47;6.80;1.00
4431;DHT22;2228;48.140;11.488;2023-04-06T07:23:14;7.00;1.00
4431;DHT22;2228;48.140;11.488;2023-04-06T07:25:42;7.10;1.00
4431;DHT22;2228;48.140;11.488;2023-04-06T07:28:09;7.10;1.00
4431;DHT22;2228;48.140;11.488;2023-04-06T07:30:38;7.30;1.00
4431;DHT22;2228;48.140;11.488;2023-04-06T07:33:05;7.80;1.00
4431;DHT22;2228;48.140;11.488;2023-04-06T07:35:32;8.20;1.00
4431;DHT22;2228;48.140;11.488;2023-04-06T07:38:01;8.10;1.00
4431;DHT22;2228;48.140;11.488;2023-04-06T07:40:29;8.10;1.00
4431;DHT22;2228;48.140;11.488;2023-04-06T07:42:57;8.20;99.90
4431;DHT22;2228;48.140;11.488;2023-04-06T07:45:24;8.30;1.00
4431;DHT22;2228;48.140;11.488;2023-04-06T07:47:52;8.50;99.90
4431;DHT22;2228;48.140;11.488;2023-04-06T07:50:19;8.70;99.90
4431;DHT22;2228;48.140;11.488;2023-04-06T07:52:46;9.20;99.90
4431;DHT22;2228;48.140;11.488;2023-04-06T07:55:14;9.80;99.90
4431;DHT22;2228;48.140;11.488;2023-04-06T07:57:41;10.10;99.90
4431;DHT22;2228;48.140;11.488;2023-04-06T08:00:09;10.20;99.90
4431;DHT22;2228;48.140;11.488;2023-04-06T08:02:36;10.20;99.90
4431;DHT22;2228;48.140;11.488;2023-04-06T08:05:05;10.30;99.90
4431;DHT22;2228;48.140;11.488;2023-04-06T08:07:33;10.40;99.90
4431;DHT22;2228;48.140;11.488;2023-04-06T08:10:01;10.10;99.90
4431;DHT22;2228;48.140;11.488;2023-04-06T08:12:28;9.40;99.90
4431;DHT22;2228;48.140;11.488;2023-04-06T08:14:55;9.70;99.90
4431;DHT22;2228;48.140;11.488;2023-04-06T08:17:22;9.20;99.90
4431;DHT22;2228;48.140;11.488;2023-04-06T08:19:49;8.80;99.90
4431;DHT22;2228;48.140;11.488;2023-04-06T08:22:17;9.60;99.90
4431;DHT22;2228;48.140;11.488;2023-04-06T08:24:44;10.30;99.90
4431;DHT22;2228;48.140;11.488;2023-04-06T08:27:11;10.30;99.90
4431;DHT22;2228;48.140;11.488;2023-04-06T08:29:40;10.80;99.90
4431;DHT22;2228;48.140;11.488;2023-04-06T08:32:07;11.00;99.90
4431;DHT22;2228;48.140;11.488;2023-04-06T08:34:34;11.00;99.90
4431;DHT22;2228;48.140;11.488;2023-04-06T08:37:01;11.00;99.90
4431;DHT22;2228;48.140;11.488;2023-04-06T08:39:29;10.80;99.90
4431;DHT22;2228;48.140;11.488;2023-04-06T08:42:00;11.20;99.90
4431;DHT22;2228;48.140;11.488;2023-04-06T08:44:29;11.40;99.90
4431;DHT22;2228;48.140;11.488;2023-04-06T08:46:56;11.60;99.90
4431;DHT22;2228;48.140;11.488;2023-04-06T08:49:23;11.70;99.90
4431;DHT22;2228;48.140;11.488;2023-04-06T08:51:50;11.90;99.90
4431;DHT22;2228;48.140;11.488;2023-04-06T08:54:17;11.80;99.90
4431;DHT22;2228;48.140;11.488;2023-04-06T08:56:46;11.90;99.90
4431;DHT22;2228;48.140;11.488;2023-04-06T08:59:14;12.10;99.90
4431;DHT22;2228;48.140;11.488;2023-04-06T09:01:42;12.10;99.90
4431;DHT22;2228;48.140;11.488;2023-04-06T09:04:11;12.60;99.90
4431;DHT22;2228;48.140;11.488;2023-04-06T09:06:39;12.80;99.90
4431;DHT22;2228;48.140;11.488;2023-04-06T09:09:06;12.80;99.90
4431;DHT22;2228;48.140;11.488;2023-04-06T09:11:45;13.00;99.90
4431;DHT22;2228;48.140;11.488;2023-04-06T09:14:13;13.40;99.90
4431;DHT22;2228;48.140;11.488;2023-04-06T09:16:41;13.70;99.90
4431;DHT22;2228;48.140;11.488;2023-04-06T09:19:12;13.80;99.90
4431;DHT22;2228;48.140;11.488;2023-04-06T09:21:39;14.10;99.90
4431;DHT22;2228;48.140;11.488;2023-04-06T09:24:16;13.80;99.90
4431;DHT22;2228;48.140;11.488;2023-04-06T09:27:05;13.00;99.90
4431;DHT22;2228;48.140;11.488;2023-04-06T09:30:26;12.20;99.90
4431;DHT22;2228;48.140;11.488;2023-04-06T09:33:06;12.30;99.90
4431;DHT22;2228;48.140;11.488;2023-04-06T09:35:36;12.90;99.90
4431;DHT22;2228;48.140;11.488;2023-04-06T09:38:11;13.00;99.90
4431;DHT22;2228;48.140;11.488;2023-04-06T09:40:48;12.60;99.90
4431;DHT22;2228;48.140;11.488;2023-04-06T09:43:24;11.90;99.90
4431;DHT22;2228;48.140;11.488;2023-04-06T09:46:46;11.50;99.90
4431;DHT22;2228;48.140;11.488;2023-04-06T09:49:27;11.60;99.90
4431;DHT22;2228;48.140;11.488;2023-04-06T09:52:06;12.10;99.90
4431;DHT22;2228;48.140;11.488;2023-04-06T09:54:50;12.70;99.90
4431;DHT22;2228;48.140;11.488;2023-04-06T09:57:29;13.20;99.90
4431;DHT22;2228;48.140;11.488;2023-04-06T10:00:08;13.30;99.90
4431;DHT22;2228;48.140;11.488;2023-04-06T10:02:53;12.90;99.90
4431;DHT22;2228;48.140;11.488;2023-04-06T10:05:41;12.30;99.90
4431;DHT22;2228;48.140;11.488;2023-04-06T10:08:13;11.50;99.90
4431;DHT22;2228;48.140;11.488;2023-04-06T10:10:43;11.00;99.90
4431;DHT22;2228;48.140;11.488;2023-04-06T10:13:27;10.50;99.90
4431;DHT22;2228;48.140;11.488;2023-04-06T10:15:55;10.30;99.90
4431;DHT22;2228;48.140;11.488;2023-04-06T10:18:22;10.90;99.90
4431;DHT22;2228;48.140;11.488;2023-04-06T10:20:52;11.30;99.90
4431;DHT22;2228;48.140;11.488;2023-04-06T10:23:24;11.30;99.90
4431;DHT22;2228;48.140;11.488;2023-04-06T10:25:53;11.20;99.90
4431;DHT22;2228;48.140;11.488;2023-04-06T10:28:21;11.50;99.90
4431;DHT22;2228;48.140;11.488;2023-04-06T10:30:48;12.30;99.90
4431;DHT22;2228;48.140;11.488;2023-04-06T10:33:17;12.80;99.90
4431;DHT22;2228;48.140;11.488;2023-04-06T10:35:45;14.00;99.90
4431;DHT22;2228;48.140;11.488;2023-04-06T10:38:12;14.50;99.90
4431;DHT22;2228;48.140;11.488;2023-04-06T10:40:41;15.10;99.90
4431;DHT22;2228;48.140;11.488;2023-04-06T10:43:13;16.10;99.90
4431;DHT22;2228;48.140;11.488;2023-04-06T10:45:41;15.90;99.90
4431;DHT22;2228;48.140;11.488;2023-04-06T10:48:16;15.10;99.90
4431;DHT22;2228;48.140;11.488;2023-04-06T10:50:46;14.70;99.90
4431;DHT22;2228;48.140;11.488;2023-04-06T10:53:21;15.10;99.90
4431;DHT22;2228;48.140;11.488;2023-04-06T10:55:49;15.30;99.90
4431;DHT22;2228;48.140;11.488;2023-04-06T10:58:16;14.00;99.90
4431;DHT22;2228;48.140;11.488;2023-04-06T11:00:44;14.60;99.90
4431;DHT22;2228;48.140;11.488;2023-04-06T11:03:11;15.30;99.90
4431;DHT22;2228;48.140;11.488;2023-04-06T11:05:43;15.60;99.90
4431;DHT22;2228;48.140;11.488;2023-04-06T11:08:10;15.80;99.90
4431;DHT22;2228;48.140;11.488;2023-04-06T11:10:37;16.20;99.90
4431;DHT22;2228;48.140;11.488;2023-04-06T11:13:07;15.60;99.90
4431;DHT22;2228;48.140;11.488;2023-04-06T11:15:34;14.90;99.90
4431;DHT22;2228;48.140;11.488;2023-04-06T11:18:04;15.50;99.90
4431;DHT22;2228;48.140;11.488;2023-04-06T11:20:32;15.90;99.90
4431;DHT22;2228;48.140;11.488;2023-04-06T11:23:03;15.80;99.90
4431;DHT22;2228;48.140;11.488;2023-04-06T11:25:30;15.50;99.90
4431;DHT22;2228;48.140;11.488;2023-04-06T11:27:59;15.70;99.90
4431;DHT22;2228;48.140;11.488;2023-04-06T11:30:27;16.00;99.90
4431;DHT22;2228;48.140;11.488;2023-04-06T11:33:00;15.60;99.90
4431;DHT22;2228;48.140;11.488;2023-04-06T11:35:31;14.70;99.90
4431;DHT22;2228;48.140;11.488;2023-04-06T11:38:02;14.70;99.90
4431;DHT22;2228;48.140;11.488;2023-04-06T11:40:44;14.90;99.90
4431;DHT22;2228;48.140;11.488;2023-04-06T11:43:11;14.80;99.90
4431;DHT22;2228;48.140;11.488;2023-04-06T11:45:41;15.20;99.90
4431;DHT22;2228;48.140;11.488;2023-04-06T11:48:18;15.10;99.90
4431;DHT22;2228;48.140;11.488;2023-04-06T11:50:55;14.30;99.90
4431;DHT22;2228;48.140;11.488;2023-04-06T11:53:25;14.30;99.90
4431;DHT22;2228;48.140;11.488;2023-04-06T11:55:56;15.20;99.90
4431;DHT22;2228;48.140;11.488;2023-04-06T11:58:25;15.90;99.90
4431;DHT22;2228;48.140;11.488;2023-04-06T12:00:53;15.50;99.90
4431;DHT22;2228;48.140;11.488;2023-04-06T12:03:21;15.30;99.90
4431;DHT22;2228;48.140;11.488;2023-04-06T12:05:48;15.50;99.90
4431;DHT22;2228;48.140;11.488;2023-04-06T12:08:17;14.60;99.90
4431;DHT22;2228;48.140;11.488;2023-04-06T12:10:45;14.10;99.90
4431;DHT22;2228;48.140;11.488;2023-04-06T12:13:13;14.50;99.90
4431;DHT22;2228;48.140;11.488;2023-04-06T12:15:40;13.90;99.90
4431;DHT22;2228;48.140;11.488;2023-04-06T12:18:08;14.50;99.90
4431;DHT22;2228;48.140;11.488;2023-04-06T12:20:36;14.60;99.90
4431;DHT22;2228;48.140;11.488;2023-04-06T12:23:02;15.50;99.90
4431;DHT22;2228;48.140;11.488;2023-04-06T12:25:29;16.00;99.90
4431;DHT22;2228;48.140;11.488;2023-04-06T12:27:58;16.80;99.90
4431;DHT22;2228;48.140;11.488;2023-04-06T12:30:25;16.50;99.90
4431;DHT22;2228;48.140;11.488;2023-04-06T12:32:52;17.00;99.90
4431;DHT22;2228;48.140;11.488;2023-04-06T12:35:18;17.70;99.90
4431;DHT22;2228;48.140;11.488;2023-04-06T12:37:46;17.80;99.90
4431;DHT22;2228;48.140;11.488;2023-04-06T12:40:13;17.30;99.90
4431;DHT22;2228;48.140;11.488;2023-04-06T12:42:43;16.60;99.90
4431;DHT22;2228;48.140;11.488;2023-04-06T12:45:13;15.20;99.90
4431;DHT22;2228;48.140;11.488;2023-04-06T12:47:40;14.10;99.90
4431;DHT22;2228;48.140;11.488;2023-04-06T12:50:07;13.30;99.90
4431;DHT22;2228;48.140;11.488;2023-04-06T12:52:34;14.00;99.90
4431;DHT22;2228;48.140;11.488;2023-04-06T12:55:02;14.30;99.90
4431;DHT22;2228;48.140;11.488;2023-04-06T12:57:28;14.10;99.90
4431;DHT22;2228;48.140;11.488;2023-04-06T12:59:56;13.70;99.90
4431;DHT22;2228;48.140;11.488;2023-04-06T13:02:25;13.40;99.90
4431;DHT22;2228;48.140;11.488;2023-04-06T13:04:52;13.40;99.90
4431;DHT22;2228;48.140;11.488;2023-04-06T13:07:19;13.10;99.90
4431;DHT22;2228;48.140;11.488;2023-04-06T13:09:46;12.80;99.90
4431;DHT22;2228;48.140;11.488;2023-04-06T13:12:15;13.50;99.90
4431;DHT22;2228;48.140;11.488;2023-04-06T13:14:41;14.50;99.90
4431;DHT22;2228;48.140;11.488;2023-04-06T13:17:08;14.80;99.90
4431;DHT22;2228;48.140;11.488;2023-04-06T13:19:37;14.90;99.90
4431;DHT22;2228;48.140;11.488;2023-04-06T13:22:05;15.20;99.90
4431;DHT22;2228;48.140;11.488;2023-04-06T13:24:32;15.70;99.90
4431;DHT22;2228;48.140;11.488;2023-04-06T13:26:59;16.90;99.90
4431;DHT22;2228;48.140;11.488;2023-04-06T13:29:28;17.70;99.90
4431;DHT22;2228;48.140;11.488;2023-04-06T13:31:54;18.60;99.90
4431;DHT22;2228;48.140;11.488;2023-04-06T13:34:21;18.30;99.90
4431;DHT22;2228;48.140;11.488;2023-04-06T13:36:49;18.10;99.90
4431;DHT22;2228;48.140;11.488;2023-04-06T13:39:16;19.30;99.90
4431;DHT22;2228;48.140;11.488;2023-04-06T13:41:43;18.80;99.90
4431;DHT22;2228;48.140;11.488;2023-04-06T13:44:10;18.20;99.90
4431;DHT22;2228;48.140;11.488;2023-04-06T13:46:37;18.40;99.90
4431;DHT22;2228;48.140;11.488;2023-04-06T13:49:04;17.40;99.90
4431;DHT22;2228;48.140;11.488;2023-04-06T13:51:31;15.80;99.90
4431;DHT22;2228;48.140;11.488;2023-04-06T13:54:01;14.80;99.90
4431;DHT22;2228;48.140;11.488;2023-04-06T13:56:28;14.30;99.90
4431;DHT22;2228;48.140;11.488;2023-04-06T13:58:55;14.50;99.90
4431;DHT22;2228;48.140;11.488;2023-04-06T14:01:22;14.50;99.90
4431;DHT22;2228;48.140;11.488;2023-04-06T14:03:50;14.60;99.90
4431;DHT22;2228;48.140;11.488;2023-04-06T14:06:17;15.00;99.90
4431;DHT22;2228;48.140;11.488;2023-04-06T14:08:44;15.50;99.90
4431;DHT22;2228;48.140;11.488;2023-04-06T14:11:13;15.10;99.90
4431;DHT22;2228;48.140;11.488;2023-04-06T14:13:40;15.10;99.90
4431;DHT22;2228;48.140;11.488;2023-04-06T14:16:07;14.70;99.90
4431;DHT22;2228;48.140;11.488;2023-04-06T14:18:35;14.00;99.90
4431;DHT22;2228;48.140;11.488;2023-04-06T14:21:03;13.60;99.90
4431;DHT22;2228;48.140;11.488;2023-04-06T14:23:30;13.40;99.90
4431;DHT22;2228;48.140;11.488;2023-04-06T14:26:01;13.40;99.90
4431;DHT22;2228;48.140;11.488;2023-04-06T14:28:31;13.30;99.90
4431;DHT22;2228;48.140;11.488;2023-04-06T14:30:58;13.60;99.90
4431;DHT22;2228;48.140;11.488;2023-04-06T14:33:27;13.40;99.90
4431;DHT22;2228;48.140;11.488;2023-04-06T14:35:53;13.40;99.90
4431;DHT22;2228;48.140;11.488;2023-04-06T14:38:20;13.70;99.90
4431;DHT22;2228;48.140;11.488;2023-04-06T14:40:47;14.50;99.90
4431;DHT22;2228;48.140;11.488;2023-04-06T14:43:15;16.20;99.90
4431;DHT22;2228;48.140;11.488;2023-04-06T14:45:43;15.90;99.90
4431;DHT22;2228;48.140;11.488;2023-04-06T14:48:10;15.70;99.90
4431;DHT22;2228;48.140;11.488;2023-04-06T14:50:38;15.30;99.90
4431;DHT22;2228;48.140;11.488;2023-04-06T14:53:05;14.90;99.90
4431;DHT22;2228;48.140;11.488;2023-04-06T14:55:32;14.70;99.90
4431;DHT22;2228;48.140;11.488;2023-04-06T14:57:59;15.10;99.90
4431;DHT22;2228;48.140;11.488;2023-04-06T15:00:26;16.20;99.90
4431;DHT22;2228;48.140;11.488;2023-04-06T15:02:56;17.30;99.90
4431;DHT22;2228;48.140;11.488;2023-04-06T15:05:23;18.60;99.90
4431;DHT22;2228;48.140;11.488;2023-04-06T15:07:50;19.60;99.90
4431;DHT22;2228;48.140;11.488;2023-04-06T15:10:17;19.70;99.90
4431;DHT22;2228;48.140;11.488;2023-04-06T15:12:44;19.70;99.90
4431;DHT22;2228;48.140;11.488;2023-04-06T15:15:14;19.20;99.90
4431;DHT22;2228;48.140;11.488;2023-04-06T15:17:41;19.10;99.90
4431;DHT22;2228;48.140;11.488;2023-04-06T15:20:10;17.60;99.90
4431;DHT22;2228;48.140;11.488;2023-04-06T15:22:37;17.00;99.90
4431;DHT22;2228;48.140;11.488;2023-04-06T15:25:04;17.20;99.90
4431;DHT22;2228;48.140;11.488;2023-04-06T15:27:31;17.80;99.90
4431;DHT22;2228;48.140;11.488;2023-04-06T15:29:58;18.40;99.90
4431;DHT22;2228;48.140;11.488;2023-04-06T15:32:27;18.20;99.90
4431;DHT22;2228;48.140;11.488;2023-04-06T15:34:56;17.80;99.90
4431;DHT22;2228;48.140;11.488;2023-04-06T15:37:24;17.80;99.90
4431;DHT22;2228;48.140;11.488;2023-04-06T15:39:51;18.30;99.90
4431;DHT22;2228;48.140;11.488;2023-04-06T15:42:18;18.40;99.90
4431;DHT22;2228;48.140;11.488;2023-04-06T15:44:45;16.90;99.90
4431;DHT22;2228;48.140;11.488;2023-04-06T15:47:12;15.40;99.90
4431;DHT22;2228;48.140;11.488;2023-04-06T15:49:39;14.10;99.90
4431;DHT22;2228;48.140;11.488;2023-04-06T15:52:06;13.30;99.90
4431;DHT22;2228;48.140;11.488;2023-04-06T15:54:34;12.40;99.90
4431;DHT22;2228;48.140;11.488;2023-04-06T15:57:06;12.40;99.90
4431;DHT22;2228;48.140;11.488;2023-04-06T15:59:32;12.50;99.90
4431;DHT22;2228;48.140;11.488;2023-04-06T16:01:59;12.50;99.90
4431;DHT22;2228;48.140;11.488;2023-04-06T16:04:27;13.10;99.90
4431;DHT22;2228;48.140;11.488;2023-04-06T16:06:54;14.90;99.90
4431;DHT22;2228;48.140;11.488;2023-04-06T16:09:21;16.90;99.90
4431;DHT22;2228;48.140;11.488;2023-04-06T16:11:50;18.40;99.90
4431;DHT22;2228;48.140;11.488;2023-04-06T16:14:17;18.70;99.90
4431;DHT22;2228;48.140;11.488;2023-04-06T16:16:43;18.10;99.90
4431;DHT22;2228;48.140;11.488;2023-04-06T16:19:11;17.50;99.90
4431;DHT22;2228;48.140;11.488;2023-04-06T16:21:38;16.80;99.90
4431;DHT22;2228;48.140;11.488;2023-04-06T16:24:05;17.40;99.90
4431;DHT22;2228;48.140;11.488;2023-04-06T16:26:33;17.80;99.90
4431;DHT22;2228;48.140;11.488;2023-04-06T16:29:03;17.20;99.90
4431;DHT22;2228;48.140;11.488;2023-04-06T16:31:30;16.50;99.90
4431;DHT22;2228;48.140;11.488;2023-04-06T16:33:57;16.30;99.90
4431;DHT22;2228;48.140;11.488;2023-04-06T16:36:25;16.50;99.90
4431;DHT22;2228;48.140;11.488;2023-04-06T16:38:53;16.70;99.90
4431;DHT22;2228;48.140;11.488;2023-04-06T16:41:20;16.70;99.90
4431;DHT22;2228;48.140;11.488;2023-04-06T16:43:47;17.00;99.90
4431;DHT22;2228;48.140;11.488;2023-04-06T16:46:16;17.20;99.90
4431;DHT22;2228;48.140;11.488;2023-04-06T16:48:43;17.30;99.90
4431;DHT22;2228;48.140;11.488;2023-04-06T16:51:10;16.60;99.90
4431;DHT22;2228;48.140;11.488;2023-04-06T16:53:37;16.00;99.90
4431;DHT22;2228;48.140;11.488;2023-04-06T16:56:05;15.50;99.90
4431;DHT22;2228;48.140;11.488;2023-04-06T16:58:33;15.00;99.90
4431;DHT22;2228;48.140;11.488;2023-04-06T17:01:02;14.80;99.90
4431;DHT22;2228;48.140;11.488;2023-04-06T17:03:32;14.70;99.90
4431;DHT22;2228;48.140;11.488;2023-04-06T17:05:59;14.10;99.90
4431;DHT22;2228;48.140;11.488;2023-04-06T17:08:26;13.30;99.90
4431;DHT22;2228;48.140;11.488;2023-04-06T17:10:54;12.80;99.90
4431;DHT22;2228;48.140;11.488;2023-04-06T17:13:21;12.50;99.90
4431;DHT22;2228;48.140;11.488;2023-04-06T17:15:48;12.10;99.90
4431;DHT22;2228;48.140;11.488;2023-04-06T17:18:14;11.80;99.90
4431;DHT22;2228;48.140;11.488;2023-04-06T17:20:43;11.50;99.90
4431;DHT22;2228;48.140;11.488;2023-04-06T17:23:11;11.30;99.90
4431;DHT22;2228;48.140;11.488;2023-04-06T17:25:38;10.80;99.90
4431;DHT22;2228;48.140;11.488;2023-04-06T17:28:05;10.70;99.90
4431;DHT22;2228;48.140;11.488;2023-04-06T17:30:32;10.60;99.90
4431;DHT22;2228;48.140;11.488;2023-04-06T17:32:59;10.60;99.90
4431;DHT22;2228;48.140;11.488;2023-04-06T17:35:26;10.50;99.90
4431;DHT22;2228;48.140;11.488;2023-04-06T17:37:55;10.40;99.90
4431;DHT22;2228;48.140;11.488;2023-04-06T17:40:22;10.30;99.90
4431;DHT22;2228;48.140;11.488;2023-04-06T17:42:49;10.20;99.90
4431;DHT22;2228;48.140;11.488;2023-04-06T17:45:16;10.10;99.90
4431;DHT22;2228;48.140;11.488;2023-04-06T17:47:43;10.00;99.90
4431;DHT22;2228;48.140;11.488;2023-04-06T17:50:10;10.00;99.90
4431;DHT22;2228;48.140;11.488;2023-04-06T17:52:37;9.80;99.90
4431;DHT22;2228;48.140;11.488;2023-04-06T17:55:08;9.60;99.90
4431;DHT22;2228;48.140;11.488;2023-04-06T17:57:35;9.30;99.90
4431;DHT22;2228;48.140;11.488;2023-04-06T18:00:03;9.10;99.90
4431;DHT22;2228;48.140;11.488;2023-04-06T18:02:31;9.00;99.90
4431;DHT22;2228;48.140;11.488;2023-04-06T18:04:58;8.80;99.90
4431;DHT22;2228;48.140;11.488;2023-04-06T18:07:27;8.50;99.90
4431;DHT22;2228;48.140;11.488;2023-04-06T18:09:54;8.30;99.90
4431;DHT22;2228;48.140;11.488;2023-04-06T18:12:24;8.30;99.90
4431;DHT22;2228;48.140;11.488;2023-04-06T18:14:51;7.90;99.90
4431;DHT22;2228;48.140;11.488;2023-04-06T18:17:18;7.70;99.90
4431;DHT22;2228;48.140;11.488;2023-04-06T18:19:46;7.50;99.90
4431;DHT22;2228;48.140;11.488;2023-04-06T18:22:14;7.40;99.90
4431;DHT22;2228;48.140;11.488;2023-04-06T18:24:44;7.10;99.90
4431;DHT22;2228;48.140;11.488;2023-04-06T18:27:11;7.00;99.90
4431;DHT22;2228;48.140;11.488;2023-04-06T18:29:54;6.80;99.90
4431;DHT22;2228;48.140;11.488;2023-04-06T18:32:24;6.60;99.90
4431;DHT22;2228;48.140;11.488;2023-04-06T18:34:55;6.40;99.90
4431;DHT22;2228;48.140;11.488;2023-04-06T18:37:22;6.40;99.90
4431;DHT22;2228;48.140;11.488;2023-04-06T18:39:49;6.30;99.90
4431;DHT22;2228;48.140;11.488;2023-04-06T18:42:16;6.20;99.90
4431;DHT22;2228;48.140;11.488;2023-04-06T18:44:44;6.10;99.90
4431;DHT22;2228;48.140;11.488;2023-04-06T18:47:12;5.90;99.90
4431;DHT22;2228;48.140;11.488;2023-04-06T18:49:39;5.90;99.90
4431;DHT22;2228;48.140;11.488;2023-04-06T18:52:07;5.70;99.90
4431;DHT22;2228;48.140;11.488;2023-04-06T18:54:35;5.50;99.90
4431;DHT22;2228;48.140;11.488;2023-04-06T18:57:02;5.30;99.90
4431;DHT22;2228;48.140;11.488;2023-04-06T18:59:29;5.20;99.90
4431;DHT22;2228;48.140;11.488;2023-04-06T19:01:57;5.10;99.90
4431;DHT22;2228;48.140;11.488;2023-04-06T19:04:26;5.00;99.90
4431;DHT22;2228;48.140;11.488;2023-04-06T19:06:55;4.90;99.90
4431;DHT22;2228;48.140;11.488;2023-04-06T19:09:25;4.90;99.90
4431;DHT22;2228;48.140;11.488;2023-04-06T19:11:53;4.80;99.90
4431;DHT22;2228;48.140;11.488;2023-04-06T19:14:22;4.60;99.90
4431;DHT22;2228;48.140;11.488;2023-04-06T19:16:49;4.60;99.90
4431;DHT22;2228;48.140;11.488;2023-04-06T19:19:18;4.50;99.90
4431;DHT22;2228;48.140;11.488;2023-04-06T19:21:48;4.50;99.90
4431;DHT22;2228;48.140;11.488;2023-04-06T19:24:15;4.40;99.90
4431;DHT22;2228;48.140;11.488;2023-04-06T19:26:42;4.30;99.90
4431;DHT22;2228;48.140;11.488;2023-04-06T19:29:13;4.30;99.90
4431;DHT22;2228;48.140;11.488;2023-04-06T19:31:40;4.30;99.90
4431;DHT22;2228;48.140;11.488;2023-04-06T19:34:07;4.30;99.90
4431;DHT22;2228;48.140;11.488;2023-04-06T19:36:35;4.30;99.90
4431;DHT22;2228;48.140;11.488;2023-04-06T19:39:03;4.30;99.90
4431;DHT22;2228;48.140;11.488;2023-04-06T19:41:30;4.20;99.90
4431;DHT22;2228;48.140;11.488;2023-04-06T19:43:57;4.20;99.90
4431;DHT22;2228;48.140;11.488;2023-04-06T19:46:24;4.20;99.90
4431;DHT22;2228;48.140;11.488;2023-04-06T19:48:51;4.30;99.90
4431;DHT22;2228;48.140;11.488;2023-04-06T19:51:18;4.30;99.90
4431;DHT22;2228;48.140;11.488;2023-04-06T19:53:45;4.20;99.90
4431;DHT22;2228;48.140;11.488;2023-04-06T19:56:13;4.30;99.90
4431;DHT22;2228;48.140;11.488;2023-04-06T19:58:40;4.40;99.90
4431;DHT22;2228;48.140;11.488;2023-04-06T20:01:07;4.40;99.90
4431;DHT22;2228;48.140;11.488;2023-04-06T20:03:35;4.40;99.90
4431;DHT22;2228;48.140;11.488;2023-04-06T20:06:02;4.60;99.90
4431;DHT22;2228;48.140;11.488;2023-04-06T20:08:29;4.70;99.90
4431;DHT22;2228;48.140;11.488;2023-04-06T20:11:00;4.80;99.90
4431;DHT22;2228;48.140;11.488;2023-04-06T20:13:29;4.80;99.90
4431;DHT22;2228;48.140;11.488;2023-04-06T20:15:56;4.70;99.90
4431;DHT22;2228;48.140;11.488;2023-04-06T20:18:23;4.70;99.90
4431;DHT22;2228;48.140;11.488;2023-04-06T20:20:51;4.90;99.90
4431;DHT22;2228;48.140;11.488;2023-04-06T20:23:19;4.90;99.90
4431;DHT22;2228;48.140;11.488;2023-04-06T20:25:46;4.80;99.90
4431;DHT22;2228;48.140;11.488;2023-04-06T20:28:13;4.70;99.90
4431;DHT22;2228;48.140;11.488;2023-04-06T20:30:43;4.60;99.90
4431;DHT22;2228;48.140;11.488;2023-04-06T20:33:10;4.60;99.90
4431;DHT22;2228;48.140;11.488;2023-04-06T20:35:37;4.60;99.90
4431;DHT22;2228;48.140;11.488;2023-04-06T20:38:04;4.60;99.90
4431;DHT22;2228;48.140;11.488;2023-04-06T20:40:31;4.50;99.90
4431;DHT22;2228;48.140;11.488;2023-04-06T20:42:58;4.50;99.90
4431;DHT22;2228;48.140;11.488;2023-04-06T20:45:27;4.50;99.90
4431;DHT22;2228;48.140;11.488;2023-04-06T20:47:56;4.50;99.90
4431;DHT22;2228;48.140;11.488;2023-04-06T20:50:23;4.50;99.90
4431;DHT22;2228;48.140;11.488;2023-04-06T20:52:50;4.60;99.90
4431;DHT22;2228;48.140;11.488;2023-04-06T20:55:17;4.70;99.90
4431;DHT22;2228;48.140;11.488;2023-04-06T20:57:44;4.70;99.90
4431;DHT22;2228;48.140;11.488;2023-04-06T21:00:11;4.60;99.90
4431;DHT22;2228;48.140;11.488;2023-04-06T21:02:39;4.60;99.90
4431;DHT22;2228;48.140;11.488;2023-04-06T21:05:09;4.60;99.90
4431;DHT22;2228;48.140;11.488;2023-04-06T21:07:36;4.50;99.90
4431;DHT22;2228;48.140;11.488;2023-04-06T21:10:04;4.50;99.90
4431;DHT22;2228;48.140;11.488;2023-04-06T21:12:31;4.50;99.90
4431;DHT22;2228;48.140;11.488;2023-04-06T21:14:58;4.60;99.90
4431;DHT22;2228;48.140;11.488;2023-04-06T21:17:28;4.60;99.90
4431;DHT22;2228;48.140;11.488;2023-04-06T21:19:55;4.60;99.90
4431;DHT22;2228;48.140;11.488;2023-04-06T21:22:23;4.60;99.90
4431;DHT22;2228;48.140;11.488;2023-04-06T21:24:50;4.70;99.90
4431;DHT22;2228;48.140;11.488;2023-04-06T21:27:17;4.80;99.90
4431;DHT22;2228;48.140;11.488;2023-04-06T21:29:44;4.80;99.90
4431;DHT22;2228;48.140;11.488;2023-04-06T21:32:11;4.90;99.90
4431;DHT22;2228;48.140;11.488;2023-04-06T21:34:40;4.90;99.90
4431;DHT22;2228;48.140;11.488;2023-04-06T21:37:10;5.00;99.90
4431;DHT22;2228;48.140;11.488;2023-04-06T21:39:38;5.10;99.90
4431;DHT22;2228;48.140;11.488;2023-04-06T21:42:05;5.20;99.90
4431;DHT22;2228;48.140;11.488;2023-04-06T21:44:32;5.20;99.90
4431;DHT22;2228;48.140;11.488;2023-04-06T21:46:59;5.30;99.90
4431;DHT22;2228;48.140;11.488;2023-04-06T21:49:27;5.30;99.90
4431;DHT22;2228;48.140;11.488;2023-04-06T21:51:53;5.40;99.90
4431;DHT22;2228;48.140;11.488;2023-04-06T21:54:20;5.50;99.90
4431;DHT22;2228;48.140;11.488;2023-04-06T21:56:50;5.60;99.90
4431;DHT22;2228;48.140;11.488;2023-04-06T21:59:17;5.70;99.90
4431;DHT22;2228;48.140;11.488;2023-04-06T22:01:45;5.80;99.90
4431;DHT22;2228;48.140;11.488;2023-04-06T22:04:12;5.90;99.90
4431;DHT22;2228;48.140;11.488;2023-04-06T22:06:38;6.00;99.90
4431;DHT22;2228;48.140;11.488;2023-04-06T22:09:06;6.00;99.90
4431;DHT22;2228;48.140;11.488;2023-04-06T22:11:34;6.20;99.90
4431;DHT22;2228;48.140;11.488;2023-04-06T22:14:04;6.10;99.90
4431;DHT22;2228;48.140;11.488;2023-04-06T22:16:32;6.10;99.90
4431;DHT22;2228;48.140;11.488;2023-04-06T22:18:59;6.20;99.90
4431;DHT22;2228;48.140;11.488;2023-04-06T22:21:27;6.20;99.90
4431;DHT22;2228;48.140;11.488;2023-04-06T22:23:56;6.30;99.90
4431;DHT22;2228;48.140;11.488;2023-04-06T22:26:23;6.30;99.90
4431;DHT22;2228;48.140;11.488;2023-04-06T22:28:50;6.40;99.90
4431;DHT22;2228;48.140;11.488;2023-04-06T22:31:19;6.30;99.90
4431;DHT22;2228;48.140;11.488;2023-04-06T22:33:46;6.20;99.90
4431;DHT22;2228;48.140;11.488;2023-04-06T22:36:13;6.20;99.90
4431;DHT22;2228;48.140;11.488;2023-04-06T22:38:40;6.20;99.90
4431;DHT22;2228;48.140;11.488;2023-04-06T22:41:17;6.30;99.90
4431;DHT22;2228;48.140;11.488;2023-04-06T22:43:46;6.30;99.90
4431;DHT22;2228;48.140;11.488;2023-04-06T22:46:13;6.40;99.90
4431;DHT22;2228;48.140;11.488;2023-04-06T22:48:41;6.40;99.90